sensor_id;sensor_type;location;lat;lon;timestamp;pressure;altitude;pressure_sealevel;temperature
37536;BMP180;23379;51.554;6.736;2023-02-26T07:46:35;101654.00;;;-0.60
37536;BMP180;23379;51.554;6.736;2023-02-26T07:49:01;101682.00;;;-0.20
37536;BMP180;23379;51.554;6.736;2023-02-26T07:51:26;101698.00;;;0.00
37536;BMP180;23379;51.554;6.736;2023-02-26T07:53:52;101671.00;;;0.20
37536;BMP180;23379;51.554;6.736;2023-02-26T07:56:17;101707.00;;;0.20
37536;BMP180;23379;51.554;6.736;2023-02-26T07:58:43;101686.00;;;0.40
37536;BMP180;23379;51.554;6.736;2023-02-26T08:01:08;101704.00;;;0.70
37536;BMP180;23379;51.554;6.736;2023-02-26T08:03:33;101707.00;;;0.70
37536;BMP180;23379;51.554;6.736;2023-02-26T08:05:59;101702.00;;;0.70
37536;BMP180;23379;51.554;6.736;2023-02-26T08:08:25;101687.00;;;1.20
37536;BMP180;23379;51.554;6.736;2023-02-26T08:10:51;101700.00;;;1.30
37536;BMP180;23379;51.554;6.736;2023-02-26T08:13:17;101688.00;;;1.70
37536;BMP180;23379;51.554;6.736;2023-02-26T08:15:42;101712.00;;;2.00
37536;BMP180;23379;51.554;6.736;2023-02-26T08:18:08;101717.00;;;2.70
37536;BMP180;23379;51.554;6.736;2023-02-26T08:20:34;101719.00;;;3.40
37536;BMP180;23379;51.554;6.736;2023-02-26T08:22:59;101716.00;;;3.00
37536;BMP180;23379;51.554;6.736;2023-02-26T08:25:25;101725.00;;;3.20
37536;BMP180;23379;51.554;6.736;2023-02-26T08:27:50;101687.00;;;3.50
37536;BMP180;23379;51.554;6.736;2023-02-26T08:30:16;101720.00;;;4.30
37536;BMP180;23379;51.554;6.736;2023-02-26T08:32:41;101736.00;;;5.00
37536;BMP180;23379;51.554;6.736;2023-02-26T08:35:08;101735.00;;;5.70
37536;BMP180;23379;51.554;6.736;2023-02-26T08:37:34;101746.00;;;5.50
37536;BMP180;23379;51.554;6.736;2023-02-26T08:39:59;101752.00;;;6.50
37536;BMP180;23379;51.554;6.736;2023-02-26T08:42:25;101746.00;;;7.70
37536;BMP180;23379;51.554;6.736;2023-02-26T08:44:50;101780.00;;;7.50
37536;BMP180;23379;51.554;6.736;2023-02-26T08:47:16;101762.00;;;7.80
37536;BMP180;23379;51.554;6.736;2023-02-26T08:49:41;101776.00;;;8.80
37536;BMP180;23379;51.554;6.736;2023-02-26T08:52:07;101787.00;;;10.10
37536;BMP180;23379;51.554;6.736;2023-02-26T08:54:32;101773.00;;;11.10
37536;BMP180;23379;51.554;6.736;2023-02-26T08:56:58;101755.00;;;10.00
37536;BMP180;23379;51.554;6.736;2023-02-26T08:59:24;101773.00;;;9.50
37536;BMP180;23379;51.554;6.736;2023-02-26T09:01:50;101769.00;;;9.80
37536;BMP180;23379;51.554;6.736;2023-02-26T09:04:15;101780.00;;;9.70
37536;BMP180;23379;51.554;6.736;2023-02-26T09:06:41;101789.00;;;10.30
37536;BMP180;23379;51.554;6.736;2023-02-26T09:09:07;101791.00;;;10.20
37536;BMP180;23379;51.554;6.736;2023-02-26T09:11:33;101795.00;;;9.30
37536;BMP180;23379;51.554;6.736;2023-02-26T09:14:02;101805.00;;;10.10
37536;BMP180;23379;51.554;6.736;2023-02-26T09:16:28;101818.00;;;10.50
37536;BMP180;23379;51.554;6.736;2023-02-26T09:18:54;101814.00;;;11.40
37536;BMP180;23379;51.554;6.736;2023-02-26T09:21:19;101814.00;;;11.70
37536;BMP180;23379;51.554;6.736;2023-02-26T09:23:45;101816.00;;;10.80
37536;BMP180;23379;51.554;6.736;2023-02-26T09:26:10;101803.00;;;10.60
37536;BMP180;23379;51.554;6.736;2023-02-26T09:28:35;101823.00;;;9.80
37536;BMP180;23379;51.554;6.736;2023-02-26T09:31:01;101821.00;;;10.70
37536;BMP180;23379;51.554;6.736;2023-02-26T09:33:26;101830.00;;;10.30
37536;BMP180;23379;51.554;6.736;2023-02-26T09:35:52;101825.00;;;9.60
37536;BMP180;23379;51.554;6.736;2023-02-26T09:38:18;101843.00;;;9.90
37536;BMP180;23379;51.554;6.736;2023-02-26T09:40:49;101842.00;;;10.40
37536;BMP180;23379;51.554;6.736;2023-02-26T09:43:31;101829.00;;;10.10
37536;BMP180;23379;51.554;6.736;2023-02-26T09:46:44;101846.00;;;10.50
37536;BMP180;23379;51.554;6.736;2023-02-26T09:48:55;101849.00;;;9.20
37536;BMP180;23379;51.554;6.736;2023-02-26T09:51:23;101838.00;;;6.60
37536;BMP180;23379;51.554;6.736;2023-02-26T09:53:50;101862.00;;;7.00
37536;BMP180;23379;51.554;6.736;2023-02-26T09:56:20;101835.00;;;7.60
37536;BMP180;23379;51.554;6.736;2023-02-26T09:58:46;101844.00;;;8.00
37536;BMP180;23379;51.554;6.736;2023-02-26T10:04:02;101860.00;;;7.40
37536;BMP180;23379;51.554;6.736;2023-02-26T10:09:24;101862.00;;;7.40
37536;BMP180;23379;51.554;6.736;2023-02-26T10:12:14;101875.00;;;7.70
37536;BMP180;23379;51.554;6.736;2023-02-26T10:17:34;101886.00;;;7.20
37536;BMP180;23379;51.554;6.736;2023-02-26T10:20:19;101891.00;;;6.80
37536;BMP180;23379;51.554;6.736;2023-02-26T10:31:08;101891.00;;;9.10
37536;BMP180;23379;51.554;6.736;2023-02-26T10:36:16;101870.00;;;8.60
37536;BMP180;23379;51.554;6.736;2023-02-26T10:38:46;101874.00;;;9.70
37536;BMP180;23379;51.554;6.736;2023-02-26T10:41:17;101881.00;;;8.70
37536;BMP180;23379;51.554;6.736;2023-02-26T10:44:02;101882.00;;;8.00
37536;BMP180;23379;51.554;6.736;2023-02-26T10:52:09;101886.00;;;9.30
37536;BMP180;23379;51.554;6.736;2023-02-26T10:54:39;101906.00;;;10.10
37536;BMP180;23379;51.554;6.736;2023-02-26T10:57:20;101889.00;;;11.50
37536;BMP180;23379;51.554;6.736;2023-02-26T10:59:47;101888.00;;;11.90
37536;BMP180;23379;51.554;6.736;2023-02-26T11:02:35;101895.00;;;10.60
37536;BMP180;23379;51.554;6.736;2023-02-26T11:05:03;101888.00;;;9.30
37536;BMP180;23379;51.554;6.736;2023-02-26T11:07:31;101904.00;;;9.60
37536;BMP180;23379;51.554;6.736;2023-02-26T11:09:58;101896.00;;;10.80
37536;BMP180;23379;51.554;6.736;2023-02-26T11:12:24;101922.00;;;8.80
37536;BMP180;23379;51.554;6.736;2023-02-26T11:14:50;101904.00;;;10.70
37536;BMP180;23379;51.554;6.736;2023-02-26T11:17:20;101919.00;;;9.80
37536;BMP180;23379;51.554;6.736;2023-02-26T11:20:14;101905.00;;;11.30
37536;BMP180;23379;51.554;6.736;2023-02-26T11:22:45;101915.00;;;11.30
37536;BMP180;23379;51.554;6.736;2023-02-26T11:25:17;101911.00;;;11.50
37536;BMP180;23379;51.554;6.736;2023-02-26T11:27:48;101933.00;;;13.20
37536;BMP180;23379;51.554;6.736;2023-02-26T11:30:20;101929.00;;;13.50
37536;BMP180;23379;51.554;6.736;2023-02-26T11:32:50;101918.00;;;13.10
37536;BMP180;23379;51.554;6.736;2023-02-26T11:35:17;101912.00;;;9.50
37536;BMP180;23379;51.554;6.736;2023-02-26T11:37:57;101917.00;;;8.00
37536;BMP180;23379;51.554;6.736;2023-02-26T11:40:38;101920.00;;;8.40
37536;BMP180;23379;51.554;6.736;2023-02-26T11:43:11;101912.00;;;8.10
37536;BMP180;23379;51.554;6.736;2023-02-26T11:45:41;101920.00;;;9.90
37536;BMP180;23379;51.554;6.736;2023-02-26T11:48:12;101920.00;;;10.60
37536;BMP180;23379;51.554;6.736;2023-02-26T11:50:40;101929.00;;;10.10
37536;BMP180;23379;51.554;6.736;2023-02-26T11:53:31;101909.00;;;8.50
37536;BMP180;23379;51.554;6.736;2023-02-26T11:56:10;101936.00;;;8.90
37536;BMP180;23379;51.554;6.736;2023-02-26T11:58:38;101926.00;;;8.60
37536;BMP180;23379;51.554;6.736;2023-02-26T12:01:06;101922.00;;;10.60
37536;BMP180;23379;51.554;6.736;2023-02-26T12:03:35;101923.00;;;11.00
37536;BMP180;23379;51.554;6.736;2023-02-26T12:06:01;101912.00;;;10.10
37536;BMP180;23379;51.554;6.736;2023-02-26T12:08:29;101923.00;;;12.20
37536;BMP180;23379;51.554;6.736;2023-02-26T12:11:11;101900.00;;;12.30
37536;BMP180;23379;51.554;6.736;2023-02-26T12:31:09;101920.00;;;12.50
37536;BMP180;23379;51.554;6.736;2023-02-26T12:45:05;101907.00;;;11.90
37536;BMP180;23379;51.554;6.736;2023-02-26T12:47:59;101916.00;;;12.60
37536;BMP180;23379;51.554;6.736;2023-02-26T13:01:44;101920.00;;;11.20
37536;BMP180;23379;51.554;6.736;2023-02-26T13:12:52;101916.00;;;12.70
37536;BMP180;23379;51.554;6.736;2023-02-26T13:15:44;101901.00;;;13.00
37536;BMP180;23379;51.554;6.736;2023-02-26T13:24:20;101900.00;;;11.90
37536;BMP180;23379;51.554;6.736;2023-02-26T13:26:46;101910.00;;;9.10
37536;BMP180;23379;51.554;6.736;2023-02-26T13:29:20;101919.00;;;9.70
37536;BMP180;23379;51.554;6.736;2023-02-26T13:32:26;101931.00;;;10.10
37536;BMP180;23379;51.554;6.736;2023-02-26T13:34:57;101917.00;;;10.20
37536;BMP180;23379;51.554;6.736;2023-02-26T13:37:41;101902.00;;;11.70
37536;BMP180;23379;51.554;6.736;2023-02-26T13:46:42;101918.00;;;10.80
37536;BMP180;23379;51.554;6.736;2023-02-26T13:52:30;101928.00;;;11.50
37536;BMP180;23379;51.554;6.736;2023-02-26T13:54:55;101905.00;;;11.20
37536;BMP180;23379;51.554;6.736;2023-02-26T13:57:48;101913.00;;;11.50
37536;BMP180;23379;51.554;6.736;2023-02-26T14:00:32;101895.00;;;11.30
37536;BMP180;23379;51.554;6.736;2023-02-26T14:10:45;101886.00;;;11.50
37536;BMP180;23379;51.554;6.736;2023-02-26T14:13:16;101894.00;;;10.70
37536;BMP180;23379;51.554;6.736;2023-02-26T14:18:51;101911.00;;;12.50
37536;BMP180;23379;51.554;6.736;2023-02-26T14:21:53;101908.00;;;11.90
37536;BMP180;23379;51.554;6.736;2023-02-26T14:24:34;101912.00;;;11.00
37536;BMP180;23379;51.554;6.736;2023-02-26T14:29:42;101910.00;;;10.20
37536;BMP180;23379;51.554;6.736;2023-02-26T14:32:15;101904.00;;;9.80
37536;BMP180;23379;51.554;6.736;2023-02-26T14:34:52;101910.00;;;10.40
37536;BMP180;23379;51.554;6.736;2023-02-26T14:37:22;101873.00;;;10.90
37536;BMP180;23379;51.554;6.736;2023-02-26T14:40:18;101925.00;;;10.60
37536;BMP180;23379;51.554;6.736;2023-02-26T14:42:51;101901.00;;;10.60
37536;BMP180;23379;51.554;6.736;2023-02-26T14:47:53;101895.00;;;9.50
37536;BMP180;23379;51.554;6.736;2023-02-26T14:50:21;101899.00;;;7.60
37536;BMP180;23379;51.554;6.736;2023-02-26T14:52:51;101909.00;;;7.30
37536;BMP180;23379;51.554;6.736;2023-02-26T14:55:34;101914.00;;;7.20
37536;BMP180;23379;51.554;6.736;2023-02-26T14:58:16;101916.00;;;6.50
37536;BMP180;23379;51.554;6.736;2023-02-26T15:00:58;101917.00;;;6.60
37536;BMP180;23379;51.554;6.736;2023-02-26T15:20:26;101936.00;;;5.20
37536;BMP180;23379;51.554;6.736;2023-02-26T15:27:56;101916.00;;;5.50
37536;BMP180;23379;51.554;6.736;2023-02-26T15:30:22;101935.00;;;5.10
37536;BMP180;23379;51.554;6.736;2023-02-26T15:32:47;101931.00;;;5.10
37536;BMP180;23379;51.554;6.736;2023-02-26T15:35:16;101945.00;;;5.20
37536;BMP180;23379;51.554;6.736;2023-02-26T15:37:42;101945.00;;;5.10
37536;BMP180;23379;51.554;6.736;2023-02-26T15:40:13;101948.00;;;5.00
37536;BMP180;23379;51.554;6.736;2023-02-26T15:42:40;101930.00;;;5.00
37536;BMP180;23379;51.554;6.736;2023-02-26T15:45:33;101953.00;;;5.20
37536;BMP180;23379;51.554;6.736;2023-02-26T15:48:07;101945.00;;;5.20
37536;BMP180;23379;51.554;6.736;2023-02-26T15:50:40;101930.00;;;5.00
37536;BMP180;23379;51.554;6.736;2023-02-26T15:53:09;101950.00;;;5.10
37536;BMP180;23379;51.554;6.736;2023-02-26T15:55:42;101950.00;;;5.30
37536;BMP180;23379;51.554;6.736;2023-02-26T15:58:19;101943.00;;;5.00
37536;BMP180;23379;51.554;6.736;2023-02-26T16:00:51;101969.00;;;4.80
37536;BMP180;23379;51.554;6.736;2023-02-26T16:03:24;101943.00;;;4.80
37536;BMP180;23379;51.554;6.736;2023-02-26T16:05:49;101943.00;;;4.70
37536;BMP180;23379;51.554;6.736;2023-02-26T16:08:15;101946.00;;;4.80
37536;BMP180;23379;51.554;6.736;2023-02-26T16:10:42;101961.00;;;5.00
37536;BMP180;23379;51.554;6.736;2023-02-26T16:13:13;101945.00;;;5.00
37536;BMP180;23379;51.554;6.736;2023-02-26T16:15:40;101963.00;;;5.10
37536;BMP180;23379;51.554;6.736;2023-02-26T16:18:08;101936.00;;;5.10
37536;BMP180;23379;51.554;6.736;2023-02-26T16:20:56;101942.00;;;4.90
37536;BMP180;23379;51.554;6.736;2023-02-26T16:23:39;101967.00;;;4.80
37536;BMP180;23379;51.554;6.736;2023-02-26T16:26:08;101961.00;;;4.70
37536;BMP180;23379;51.554;6.736;2023-02-26T16:28:39;101976.00;;;4.50
37536;BMP180;23379;51.554;6.736;2023-02-26T16:31:21;101967.00;;;4.40
37536;BMP180;23379;51.554;6.736;2023-02-26T16:36:46;101970.00;;;4.60
37536;BMP180;23379;51.554;6.736;2023-02-26T16:39:22;101953.00;;;4.60
37536;BMP180;23379;51.554;6.736;2023-02-26T16:42:00;101979.00;;;4.60
37536;BMP180;23379;51.554;6.736;2023-02-26T16:46:54;101970.00;;;4.30
37536;BMP180;23379;51.554;6.736;2023-02-26T16:49:25;101994.00;;;4.40
37536;BMP180;23379;51.554;6.736;2023-02-26T16:51:52;101983.00;;;4.40
37536;BMP180;23379;51.554;6.736;2023-02-26T16:56:45;102008.00;;;4.00
37536;BMP180;23379;51.554;6.736;2023-02-26T16:59:27;102011.00;;;4.20
37536;BMP180;23379;51.554;6.736;2023-02-26T17:02:15;102014.00;;;4.20
37536;BMP180;23379;51.554;6.736;2023-02-26T17:04:45;102000.00;;;4.10
37536;BMP180;23379;51.554;6.736;2023-02-26T17:07:24;102018.00;;;4.00
37536;BMP180;23379;51.554;6.736;2023-02-26T17:09:52;102019.00;;;4.10
37536;BMP180;23379;51.554;6.736;2023-02-26T17:12:41;102021.00;;;4.10
37536;BMP180;23379;51.554;6.736;2023-02-26T17:17:43;102010.00;;;4.00
37536;BMP180;23379;51.554;6.736;2023-02-26T17:20:09;102003.00;;;4.00
37536;BMP180;23379;51.554;6.736;2023-02-26T17:22:35;102008.00;;;3.90
37536;BMP180;23379;51.554;6.736;2023-02-26T17:25:00;102021.00;;;4.00
37536;BMP180;23379;51.554;6.736;2023-02-26T17:27:28;102015.00;;;4.10
37536;BMP180;23379;51.554;6.736;2023-02-26T17:29:56;102028.00;;;4.00
37536;BMP180;23379;51.554;6.736;2023-02-26T17:32:24;102031.00;;;3.80
37536;BMP180;23379;51.554;6.736;2023-02-26T17:34:51;102013.00;;;3.80
37536;BMP180;23379;51.554;6.736;2023-02-26T17:37:17;102026.00;;;3.70
37536;BMP180;23379;51.554;6.736;2023-02-26T17:39:46;102005.00;;;3.70
37536;BMP180;23379;51.554;6.736;2023-02-26T17:42:16;102011.00;;;3.50
37536;BMP180;23379;51.554;6.736;2023-02-26T17:44:50;102041.00;;;3.60
37536;BMP180;23379;51.554;6.736;2023-02-26T17:47:18;102033.00;;;3.40
37536;BMP180;23379;51.554;6.736;2023-02-26T17:49:45;102033.00;;;3.30
37536;BMP180;23379;51.554;6.736;2023-02-26T17:52:11;102057.00;;;3.60
37536;BMP180;23379;51.554;6.736;2023-02-26T17:54:37;102044.00;;;3.40
37536;BMP180;23379;51.554;6.736;2023-02-26T17:57:03;102038.00;;;3.60
37536;BMP180;23379;51.554;6.736;2023-02-26T17:59:29;102053.00;;;3.70
37536;BMP180;23379;51.554;6.736;2023-02-26T18:01:54;102055.00;;;3.70
37536;BMP180;23379;51.554;6.736;2023-02-26T18:04:19;102043.00;;;3.70
37536;BMP180;23379;51.554;6.736;2023-02-26T18:06:46;102074.00;;;3.50
37536;BMP180;23379;51.554;6.736;2023-02-26T18:09:12;102062.00;;;3.70
37536;BMP180;23379;51.554;6.736;2023-02-26T18:11:38;102067.00;;;3.60
37536;BMP180;23379;51.554;6.736;2023-02-26T18:14:04;102074.00;;;3.60
37536;BMP180;23379;51.554;6.736;2023-02-26T18:16:32;102062.00;;;3.90
37536;BMP180;23379;51.554;6.736;2023-02-26T18:18:59;102079.00;;;4.00
37536;BMP180;23379;51.554;6.736;2023-02-26T18:21:24;102058.00;;;3.70
37536;BMP180;23379;51.554;6.736;2023-02-26T18:23:50;102069.00;;;3.20
37536;BMP180;23379;51.554;6.736;2023-02-26T18:26:18;102074.00;;;3.40
37536;BMP180;23379;51.554;6.736;2023-02-26T18:28:47;102086.00;;;3.30
37536;BMP180;23379;51.554;6.736;2023-02-26T18:31:12;102064.00;;;3.30
37536;BMP180;23379;51.554;6.736;2023-02-26T18:33:38;102067.00;;;3.10
37536;BMP180;23379;51.554;6.736;2023-02-26T18:36:05;102073.00;;;3.30
37536;BMP180;23379;51.554;6.736;2023-02-26T18:38:31;102081.00;;;3.30
37536;BMP180;23379;51.554;6.736;2023-02-26T18:40:57;102072.00;;;3.30
37536;BMP180;23379;51.554;6.736;2023-02-26T18:43:22;102074.00;;;3.40
37536;BMP180;23379;51.554;6.736;2023-02-26T18:45:49;102065.00;;;3.30
37536;BMP180;23379;51.554;6.736;2023-02-26T18:48:18;102054.00;;;3.20
37536;BMP180;23379;51.554;6.736;2023-02-26T18:50:44;102089.00;;;3.30
37536;BMP180;23379;51.554;6.736;2023-02-26T18:53:10;102076.00;;;3.40
37536;BMP180;23379;51.554;6.736;2023-02-26T18:55:35;102061.00;;;3.50
37536;BMP180;23379;51.554;6.736;2023-02-26T18:58:01;102063.00;;;3.50
37536;BMP180;23379;51.554;6.736;2023-02-26T19:00:27;102051.00;;;3.40
37536;BMP180;23379;51.554;6.736;2023-02-26T19:02:53;102078.00;;;3.20
37536;BMP180;23379;51.554;6.736;2023-02-26T19:05:18;102081.00;;;3.30
37536;BMP180;23379;51.554;6.736;2023-02-26T19:07:48;102078.00;;;3.40
37536;BMP180;23379;51.554;6.736;2023-02-26T19:10:14;102074.00;;;3.30
37536;BMP180;23379;51.554;6.736;2023-02-26T19:12:41;102066.00;;;3.30
37536;BMP180;23379;51.554;6.736;2023-02-26T19:15:08;102092.00;;;3.40
37536;BMP180;23379;51.554;6.736;2023-02-26T19:17:33;102089.00;;;3.30
37536;BMP180;23379;51.554;6.736;2023-02-26T19:19:59;102062.00;;;3.20
37536;BMP180;23379;51.554;6.736;2023-02-26T19:22:24;102080.00;;;3.60
37536;BMP180;23379;51.554;6.736;2023-02-26T19:24:50;102076.00;;;3.70
37536;BMP180;23379;51.554;6.736;2023-02-26T19:27:15;102079.00;;;3.80
37536;BMP180;23379;51.554;6.736;2023-02-26T19:29:40;102109.00;;;3.70
37536;BMP180;23379;51.554;6.736;2023-02-26T19:32:07;102092.00;;;3.60
37536;BMP180;23379;51.554;6.736;2023-02-26T19:34:33;102104.00;;;3.60
37536;BMP180;23379;51.554;6.736;2023-02-26T19:36:59;102104.00;;;3.20
37536;BMP180;23379;51.554;6.736;2023-02-26T19:39:25;102104.00;;;3.20
37536;BMP180;23379;51.554;6.736;2023-02-26T19:41:52;102118.00;;;3.30
37536;BMP180;23379;51.554;6.736;2023-02-26T19:44:19;102121.00;;;3.30
37536;BMP180;23379;51.554;6.736;2023-02-26T19:46:44;102121.00;;;3.20
37536;BMP180;23379;51.554;6.736;2023-02-26T19:49:10;102088.00;;;3.10
37536;BMP180;23379;51.554;6.736;2023-02-26T19:51:36;102103.00;;;3.50
37536;BMP180;23379;51.554;6.736;2023-02-26T19:54:01;102115.00;;;3.40
37536;BMP180;23379;51.554;6.736;2023-02-26T19:56:27;102111.00;;;3.10
37536;BMP180;23379;51.554;6.736;2023-02-26T19:58:52;102116.00;;;3.20
37536;BMP180;23379;51.554;6.736;2023-02-26T20:01:18;102129.00;;;3.10
37536;BMP180;23379;51.554;6.736;2023-02-26T20:03:43;102132.00;;;3.20
37536;BMP180;23379;51.554;6.736;2023-02-26T20:06:09;102132.00;;;3.20
37536;BMP180;23379;51.554;6.736;2023-02-26T20:08:36;102136.00;;;3.30
37536;BMP180;23379;51.554;6.736;2023-02-26T20:11:02;102114.00;;;3.10
37536;BMP180;23379;51.554;6.736;2023-02-26T20:13:27;102141.00;;;3.00
37536;BMP180;23379;51.554;6.736;2023-02-26T20:15:55;102142.00;;;3.30
37536;BMP180;23379;51.554;6.736;2023-02-26T20:18:23;102150.00;;;3.30
37536;BMP180;23379;51.554;6.736;2023-02-26T20:20:48;102138.00;;;3.10
37536;BMP180;23379;51.554;6.736;2023-02-26T20:23:14;102127.00;;;2.80
37536;BMP180;23379;51.554;6.736;2023-02-26T20:25:42;102159.00;;;2.90
37536;BMP180;23379;51.554;6.736;2023-02-26T20:28:07;102146.00;;;2.90
37536;BMP180;23379;51.554;6.736;2023-02-26T20:30:33;102151.00;;;3.00
37536;BMP180;23379;51.554;6.736;2023-02-26T20:32:59;102157.00;;;2.70
37536;BMP180;23379;51.554;6.736;2023-02-26T20:35:24;102159.00;;;2.60
37536;BMP180;23379;51.554;6.736;2023-02-26T20:37:50;102139.00;;;2.60
37536;BMP180;23379;51.554;6.736;2023-02-26T20:40:15;102180.00;;;2.40
37536;BMP180;23379;51.554;6.736;2023-02-26T20:42:41;102177.00;;;2.30
37536;BMP180;23379;51.554;6.736;2023-02-26T20:45:06;102157.00;;;2.30
37536;BMP180;23379;51.554;6.736;2023-02-26T20:47:32;102157.00;;;2.40
37536;BMP180;23379;51.554;6.736;2023-02-26T20:49:57;102173.00;;;2.10
37536;BMP180;23379;51.554;6.736;2023-02-26T20:52:23;102122.00;;;2.20
37536;BMP180;23379;51.554;6.736;2023-02-26T20:54:48;102125.00;;;2.30
37536;BMP180;23379;51.554;6.736;2023-02-26T20:57:13;102186.00;;;2.00
37536;BMP180;23379;51.554;6.736;2023-02-26T20:59:39;102176.00;;;2.40
37536;BMP180;23379;51.554;6.736;2023-02-26T21:02:05;102159.00;;;2.20
37536;BMP180;23379;51.554;6.736;2023-02-26T21:04:30;102183.00;;;2.50
37536;BMP180;23379;51.554;6.736;2023-02-26T21:06:55;102175.00;;;2.20
37536;BMP180;23379;51.554;6.736;2023-02-26T21:09:36;102186.00;;;2.30
37536;BMP180;23379;51.554;6.736;2023-02-26T21:12:02;102186.00;;;2.50
37536;BMP180;23379;51.554;6.736;2023-02-26T21:14:27;102182.00;;;2.50
37536;BMP180;23379;51.554;6.736;2023-02-26T21:16:53;102181.00;;;2.50
37536;BMP180;23379;51.554;6.736;2023-02-26T21:19:21;102187.00;;;2.50
37536;BMP180;23379;51.554;6.736;2023-02-26T21:21:47;102183.00;;;2.50
37536;BMP180;23379;51.554;6.736;2023-02-26T21:24:13;102203.00;;;2.80
37536;BMP180;23379;51.554;6.736;2023-02-26T21:26:38;102206.00;;;2.40
37536;BMP180;23379;51.554;6.736;2023-02-26T21:29:04;102194.00;;;2.20
37536;BMP180;23379;51.554;6.736;2023-02-26T21:31:29;102182.00;;;2.30
37536;BMP180;23379;51.554;6.736;2023-02-26T21:33:55;102212.00;;;2.50
37536;BMP180;23379;51.554;6.736;2023-02-26T21:36:20;102203.00;;;2.10
37536;BMP180;23379;51.554;6.736;2023-02-26T21:38:45;102185.00;;;2.10
37536;BMP180;23379;51.554;6.736;2023-02-26T21:41:11;102196.00;;;2.30
37536;BMP180;23379;51.554;6.736;2023-02-26T21:43:36;102197.00;;;2.20
37536;BMP180;23379;51.554;6.736;2023-02-26T21:46:02;102182.00;;;2.20
37536;BMP180;23379;51.554;6.736;2023-02-26T21:48:27;102196.00;;;2.20
37536;BMP180;23379;51.554;6.736;2023-02-26T21:50:53;102176.00;;;2.30
37536;BMP180;23379;51.554;6.736;2023-02-26T21:53:20;102189.00;;;2.30
37536;BMP180;23379;51.554;6.736;2023-02-26T21:55:46;102211.00;;;2.20
37536;BMP180;23379;51.554;6.736;2023-02-26T21:58:11;102202.00;;;2.30
37536;BMP180;23379;51.554;6.736;2023-02-26T22:00:36;102182.00;;;2.00
37536;BMP180;23379;51.554;6.736;2023-02-26T22:03:02;102199.00;;;2.10
37536;BMP180;23379;51.554;6.736;2023-02-26T22:05:28;102207.00;;;2.10
37536;BMP180;23379;51.554;6.736;2023-02-26T22:07:53;102209.00;;;1.80
37536;BMP180;23379;51.554;6.736;2023-02-26T22:10:18;102206.00;;;1.80
37536;BMP180;23379;51.554;6.736;2023-02-26T22:12:44;102204.00;;;1.90
37536;BMP180;23379;51.554;6.736;2023-02-26T22:15:10;102203.00;;;2.00
37536;BMP180;23379;51.554;6.736;2023-02-26T22:17:36;102207.00;;;1.80
37536;BMP180;23379;51.554;6.736;2023-02-26T22:20:02;102210.00;;;1.90
37536;BMP180;23379;51.554;6.736;2023-02-26T22:22:30;102198.00;;;1.80
37536;BMP180;23379;51.554;6.736;2023-02-26T22:24:55;102210.00;;;1.30
37536;BMP180;23379;51.554;6.736;2023-02-26T22:27:21;102209.00;;;1.50
37536;BMP180;23379;51.554;6.736;2023-02-26T22:29:46;102200.00;;;1.30
37536;BMP180;23379;51.554;6.736;2023-02-26T22:32:11;102201.00;;;1.40
37536;BMP180;23379;51.554;6.736;2023-02-26T22:34:37;102203.00;;;1.20
37536;BMP180;23379;51.554;6.736;2023-02-26T22:37:02;102221.00;;;1.30
37536;BMP180;23379;51.554;6.736;2023-02-26T22:39:28;102206.00;;;1.30
37536;BMP180;23379;51.554;6.736;2023-02-26T22:41:53;102208.00;;;1.10
37536;BMP180;23379;51.554;6.736;2023-02-26T22:44:19;102209.00;;;1.30
37536;BMP180;23379;51.554;6.736;2023-02-26T22:46:44;102204.00;;;1.30
37536;BMP180;23379;51.554;6.736;2023-02-26T22:49:11;102219.00;;;1.20
37536;BMP180;23379;51.554;6.736;2023-02-26T22:51:37;102207.00;;;1.30
37536;BMP180;23379;51.554;6.736;2023-02-26T22:54:02;102225.00;;;1.20
37536;BMP180;23379;51.554;6.736;2023-02-26T22:56:28;102209.00;;;1.00
37536;BMP180;23379;51.554;6.736;2023-02-26T22:58:54;102228.00;;;0.80
37536;BMP180;23379;51.554;6.736;2023-02-26T23:01:19;102220.00;;;0.70
37536;BMP180;23379;51.554;6.736;2023-02-26T23:03:45;102213.00;;;0.80
37536;BMP180;23379;51.554;6.736;2023-02-26T23:06:12;102230.00;;;0.60
37536;BMP180;23379;51.554;6.736;2023-02-26T23:08:37;102229.00;;;0.80
37536;BMP180;23379;51.554;6.736;2023-02-26T23:11:03;102234.00;;;0.70
37536;BMP180;23379;51.554;6.736;2023-02-26T23:13:31;102245.00;;;1.00
37536;BMP180;23379;51.554;6.736;2023-02-26T23:15:59;102222.00;;;1.00
37536;BMP180;23379;51.554;6.736;2023-02-26T23:18:25;102224.00;;;0.90
37536;BMP180;23379;51.554;6.736;2023-02-26T23:20:50;102231.00;;;0.90
37536;BMP180;23379;51.554;6.736;2023-02-26T23:23:16;102243.00;;;0.90
37536;BMP180;23379;51.554;6.736;2023-02-26T23:25:42;102244.00;;;0.80
37536;BMP180;23379;51.554;6.736;2023-02-26T23:28:13;102198.00;;;0.70
37536;BMP180;23379;51.554;6.736;2023-02-26T23:30:39;102228.00;;;0.80
37536;BMP180;23379;51.554;6.736;2023-02-26T23:33:05;102236.00;;;0.60
37536;BMP180;23379;51.554;6.736;2023-02-26T23:35:34;102249.00;;;0.50
37536;BMP180;23379;51.554;6.736;2023-02-26T23:38:00;102250.00;;;0.50
37536;BMP180;23379;51.554;6.736;2023-02-26T23:40:26;102241.00;;;0.50
37536;BMP180;23379;51.554;6.736;2023-02-26T23:42:51;102252.00;;;0.50
37536;BMP180;23379;51.554;6.736;2023-02-26T23:45:17;102257.00;;;0.50
37536;BMP180;23379;51.554;6.736;2023-02-26T23:47:42;102251.00;;;0.20
37536;BMP180;23379;51.554;6.736;2023-02-26T23:50:08;102263.00;;;0.10
37536;BMP180;23379;51.554;6.736;2023-02-26T23:52:35;102222.00;;;0.00
37536;BMP180;23379;51.554;6.736;2023-02-26T23:55:01;102258.00;;;-0.20
37536;BMP180;23379;51.554;6.736;2023-02-26T23:57:27;102233.00;;;-0.20
37536;BMP180;23379;51.554;6.736;2023-02-26T23:59:52;102228.00;;;0.00
